createdAt,value
2018-05-14T00:00:06.191Z,17.20
2018-05-14T00:03:38.735Z,17.20
2018-05-14T00:07:11.184Z,17.20
2018-05-14T00:10:44.455Z,17.30
2018-05-14T00:14:17.704Z,17.30
2018-05-14T00:17:50.956Z,17.40
2018-05-14T00:21:23.480Z,17.40
2018-05-14T00:24:56.744Z,17.50
2018-05-14T00:28:29.420Z,17.40
2018-05-14T00:32:01.949Z,17.50
2018-05-14T00:35:35.214Z,17.60
2018-05-14T00:39:07.716Z,17.60
2018-05-14T00:42:40.205Z,17.70
2018-05-14T00:46:13.471Z,17.60
2018-05-14T00:49:45.957Z,17.50
2018-05-14T00:53:18.435Z,17.50
2018-05-14T00:56:50.922Z,17.50
2018-05-14T01:00:23.416Z,17.50
2018-05-14T01:03:55.908Z,17.50
2018-05-14T01:07:28.385Z,17.50
2018-05-14T01:11:00.884Z,17.40
2018-05-14T01:14:34.136Z,17.50
2018-05-14T01:18:06.613Z,17.50
2018-05-14T01:21:39.100Z,17.50
2018-05-14T01:25:11.592Z,17.40
2018-05-14T01:28:44.079Z,17.40
2018-05-14T01:32:16.551Z,17.40
2018-05-14T01:35:49.034Z,17.40
2018-05-14T01:39:21.522Z,17.40
2018-05-14T01:42:54.000Z,17.40
2018-05-14T01:46:26.483Z,17.40
2018-05-14T01:49:58.999Z,17.40
2018-05-14T01:53:32.248Z,17.40
2018-05-14T01:57:04.733Z,17.30
2018-05-14T02:00:37.226Z,17.40
2018-05-14T02:04:09.762Z,17.30
2018-05-14T02:07:42.304Z,17.30
2018-05-14T02:11:14.863Z,17.40
2018-05-14T02:14:47.374Z,17.40
2018-05-14T02:18:19.872Z,17.40
2018-05-14T02:21:52.352Z,17.40
2018-05-14T02:25:25.624Z,17.60
2018-05-14T02:28:58.117Z,17.60
2018-05-14T02:32:30.637Z,17.80
2018-05-14T02:36:03.881Z,17.90
2018-05-14T02:39:36.389Z,17.80
2018-05-14T02:43:08.880Z,17.90
2018-05-14T02:46:41.366Z,17.90
2018-05-14T02:50:13.870Z,17.80
2018-05-14T02:53:46.368Z,17.80
2018-05-14T02:57:18.865Z,17.80
2018-05-14T03:00:51.341Z,17.80
2018-05-14T03:04:23.863Z,17.80
2018-05-14T03:07:56.348Z,17.80
2018-05-14T03:11:28.837Z,17.80
2018-05-14T03:15:01.329Z,17.80
2018-05-14T03:18:34.583Z,17.90
2018-05-14T03:22:07.081Z,17.90
2018-05-14T03:25:39.568Z,17.90
2018-05-14T03:29:12.091Z,17.90
2018-05-14T03:32:44.580Z,17.90
2018-05-14T03:36:17.090Z,17.80
2018-05-14T03:39:49.567Z,17.70
2018-05-14T03:43:22.060Z,17.70
2018-05-14T03:46:54.543Z,17.60
2018-05-14T03:50:27.785Z,17.60
2018-05-14T03:54:01.044Z,17.70
2018-05-14T03:57:33.631Z,17.70
2018-05-14T04:05:18.676Z,17.80
2018-05-14T04:08:51.976Z,17.80
2018-05-14T04:12:25.223Z,17.80
2018-05-14T04:15:57.701Z,17.80
2018-05-14T04:19:30.185Z,17.80
2018-05-14T04:23:02.675Z,17.80
2018-05-14T04:26:35.164Z,17.80
2018-05-14T04:30:07.652Z,17.80
2018-05-14T04:33:40.146Z,17.80
2018-05-14T04:37:12.647Z,17.90
2018-05-14T04:40:45.893Z,18.10
2018-05-14T04:44:18.372Z,18.10
2018-05-14T04:47:50.862Z,18.20
2018-05-14T04:51:23.360Z,18.30
2018-05-14T04:54:55.832Z,18.40
2018-05-14T04:58:28.335Z,18.40
2018-05-14T05:02:00.821Z,18.40
2018-05-14T05:05:33.300Z,18.40
2018-05-14T05:09:05.770Z,18.40
2018-05-14T05:12:38.249Z,18.40
2018-05-14T05:16:10.733Z,18.40
2018-05-14T05:19:43.205Z,18.30
2018-05-14T05:23:15.720Z,18.30
2018-05-14T05:26:48.204Z,18.30
2018-05-14T05:30:20.688Z,18.30
2018-05-14T05:33:53.171Z,18.30
2018-05-14T05:37:25.657Z,18.30
2018-05-14T05:40:58.136Z,18.30
2018-05-14T05:44:30.622Z,18.40
2018-05-14T05:48:03.875Z,18.40
2018-05-14T05:51:36.360Z,18.40
2018-05-14T05:55:08.848Z,18.40
2018-05-14T05:58:42.085Z,18.50
2018-05-14T06:02:15.329Z,18.60
2018-05-14T06:05:47.816Z,18.60
2018-05-14T06:09:20.303Z,18.80
2018-05-14T06:12:52.793Z,18.90
2018-05-14T06:16:25.277Z,19.00
2018-05-14T06:19:57.772Z,19.10
2018-05-14T06:23:30.252Z,19.30
2018-05-14T06:27:02.849Z,19.30
2018-05-14T06:30:35.332Z,19.40
2018-05-14T06:34:07.820Z,19.40
2018-05-14T06:37:41.089Z,19.50
2018-05-14T06:41:13.595Z,19.50
2018-05-14T06:44:46.081Z,19.60
2018-05-14T06:48:18.767Z,19.60
2018-05-14T06:51:51.048Z,19.70
2018-05-14T06:55:23.530Z,19.70
2018-05-14T06:58:56.008Z,19.70
2018-05-14T07:02:28.488Z,19.80
2018-05-14T07:06:00.983Z,19.80
2018-05-14T07:09:33.457Z,19.70
2018-05-14T07:13:05.933Z,19.80
2018-05-14T07:16:38.411Z,19.90
2018-05-14T07:20:10.903Z,19.90
2018-05-14T07:23:43.385Z,19.90
2018-05-14T07:27:15.860Z,19.90
2018-05-14T07:30:48.369Z,20.00
2018-05-14T07:34:20.843Z,20.10
2018-05-14T07:37:54.090Z,20.30
2018-05-14T07:41:26.577Z,20.30
2018-05-14T07:44:59.055Z,20.40
2018-05-14T07:48:31.548Z,20.50
2018-05-14T07:52:04.040Z,20.70
2018-05-14T07:55:36.520Z,20.90
2018-05-14T07:59:09.102Z,21.10
2018-05-14T08:02:42.281Z,21.10
2018-05-14T08:06:14.787Z,21.10
2018-05-14T08:09:47.268Z,21.20
2018-05-14T08:13:20.557Z,21.40
2018-05-14T08:16:53.015Z,21.30
2018-05-14T08:20:26.640Z,21.40
2018-05-14T08:23:59.133Z,21.50
2018-05-14T08:27:31.613Z,21.50
2018-05-14T08:31:04.088Z,21.60
2018-05-14T08:34:36.566Z,21.70
2018-05-14T08:38:09.084Z,21.80
2018-05-14T08:41:41.916Z,21.90
2018-05-14T08:45:14.395Z,21.90
2018-05-14T08:48:47.967Z,22.10
2018-05-14T08:52:20.397Z,22.20
2018-05-14T08:55:52.876Z,22.20
2018-05-14T08:59:25.359Z,22.30
2018-05-14T09:02:57.856Z,22.40
2018-05-14T09:06:30.335Z,22.50
2018-05-14T09:10:02.809Z,22.70
2018-05-14T09:13:35.299Z,22.80
2018-05-14T09:17:07.777Z,22.90
2018-05-14T09:20:40.266Z,23.00
2018-05-14T09:24:12.748Z,23.20
2018-05-14T09:27:45.242Z,23.40
2018-05-14T09:31:17.738Z,23.50
2018-05-14T09:34:50.208Z,23.80
2018-05-14T09:38:22.690Z,24.00
2018-05-14T09:41:55.178Z,24.20
2018-05-14T09:45:27.649Z,24.40
2018-05-14T09:49:00.136Z,24.50
2018-05-14T09:52:32.613Z,24.70
2018-05-14T09:56:05.172Z,24.90
2018-05-14T09:59:37.581Z,24.90
2018-05-14T10:03:10.076Z,25.00
2018-05-14T10:06:42.556Z,25.20
2018-05-14T10:10:15.040Z,25.30
2018-05-14T10:13:47.528Z,25.30
2018-05-14T10:17:20.006Z,25.40
2018-05-14T10:20:52.492Z,25.70
2018-05-14T10:24:24.980Z,25.70
2018-05-14T10:27:57.448Z,25.60
2018-05-14T10:31:29.927Z,25.50
2018-05-14T10:35:02.407Z,25.40
2018-05-14T10:38:34.888Z,25.30
2018-05-14T10:42:07.368Z,25.20
2018-05-14T10:45:39.848Z,25.40
2018-05-14T10:49:12.334Z,25.50
2018-05-14T10:52:44.818Z,25.50
2018-05-14T10:56:17.291Z,25.60
2018-05-14T10:59:49.765Z,25.60
2018-05-14T11:03:22.241Z,25.70
2018-05-14T11:06:54.732Z,25.70
2018-05-14T11:10:27.210Z,25.90
2018-05-14T11:13:59.680Z,25.90
2018-05-14T11:17:32.152Z,25.90
2018-05-14T11:21:04.639Z,25.90
2018-05-14T11:24:37.112Z,26.10
2018-05-14T11:28:09.584Z,26.00
2018-05-14T11:31:42.063Z,26.10
2018-05-14T11:35:14.552Z,26.20
2018-05-14T11:38:47.036Z,26.40
2018-05-14T11:42:19.507Z,26.60
2018-05-14T11:45:52.006Z,26.50
2018-05-14T11:49:24.493Z,26.50
2018-05-14T11:52:56.963Z,26.50
2018-05-14T11:56:29.440Z,26.40
2018-05-14T12:00:01.917Z,26.10
2018-05-14T12:03:34.399Z,25.80
2018-05-14T12:07:06.880Z,25.60
2018-05-14T12:10:39.363Z,25.60
2018-05-14T12:14:11.845Z,25.70
2018-05-14T12:17:44.312Z,25.90
2018-05-14T12:21:17.561Z,26.40
2018-05-14T12:24:50.040Z,26.30
2018-05-14T12:28:22.528Z,26.50
2018-05-14T12:31:55.013Z,26.70
2018-05-14T12:35:27.491Z,26.70
2018-05-14T12:38:59.973Z,26.70
2018-05-14T12:42:32.442Z,26.70
2018-05-14T12:46:05.041Z,26.60
2018-05-14T12:49:37.436Z,26.50
2018-05-14T12:53:09.925Z,26.50
2018-05-14T12:56:42.399Z,26.50
2018-05-14T13:00:14.876Z,26.30
2018-05-14T13:03:47.352Z,26.10
2018-05-14T13:07:19.816Z,26.00
2018-05-14T13:10:52.301Z,25.90
2018-05-14T13:14:24.779Z,25.90
2018-05-14T13:17:57.293Z,26.00
2018-05-14T13:21:29.773Z,26.20
2018-05-14T13:25:02.277Z,26.40
2018-05-14T13:28:35.541Z,26.90
2018-05-14T13:32:08.044Z,26.90
2018-05-14T13:35:40.506Z,27.10
2018-05-14T13:39:12.989Z,27.40
2018-05-14T13:42:45.478Z,27.50
2018-05-14T13:46:18.031Z,27.70
2018-05-14T13:49:50.449Z,27.80
2018-05-14T13:53:22.920Z,28.00
2018-05-14T13:56:55.388Z,28.30
2018-05-14T14:00:27.894Z,28.50
2018-05-14T14:04:00.384Z,28.70
2018-05-14T14:07:32.863Z,29.00
2018-05-14T14:11:05.337Z,29.10
2018-05-14T14:14:37.853Z,29.20
2018-05-14T14:18:10.336Z,29.20
2018-05-14T14:21:42.816Z,29.20
2018-05-14T14:25:15.289Z,29.40
2018-05-14T14:28:47.764Z,29.30
2018-05-14T14:32:21.017Z,28.80
2018-05-14T14:35:53.581Z,28.70
2018-05-14T14:39:25.983Z,28.80
2018-05-14T14:42:58.584Z,28.70
2018-05-14T14:46:31.162Z,28.60
2018-05-14T14:50:03.817Z,28.40
2018-05-14T14:53:36.365Z,28.40
2018-05-14T14:57:08.801Z,28.20
2018-05-14T15:00:41.280Z,28.00
2018-05-14T15:04:13.761Z,27.80
2018-05-14T15:07:46.256Z,28.00
2018-05-14T15:11:18.741Z,28.40
2018-05-14T15:14:51.268Z,28.60
2018-05-14T15:18:24.509Z,28.10
2018-05-14T15:21:56.998Z,28.10
2018-05-14T15:25:29.476Z,27.70
2018-05-14T15:29:01.989Z,27.30
2018-05-14T15:32:34.502Z,26.90
2018-05-14T15:36:06.994Z,26.60
2018-05-14T15:39:39.474Z,26.40
2018-05-14T15:43:11.986Z,26.20
2018-05-14T15:46:44.465Z,26.10
2018-05-14T15:50:16.944Z,26.10
2018-05-14T15:53:49.460Z,26.00
2018-05-14T15:57:21.940Z,26.00
2018-05-14T16:00:54.432Z,25.90
2018-05-14T16:04:26.900Z,25.90
2018-05-14T16:07:59.388Z,25.90
2018-05-14T16:11:31.891Z,26.30
2018-05-14T16:15:05.156Z,27.00
2018-05-14T16:18:37.649Z,27.00
2018-05-14T16:22:10.464Z,27.40
2018-05-14T16:25:43.743Z,27.10
2018-05-14T16:29:16.223Z,27.10
2018-05-14T16:32:48.727Z,26.90
2018-05-14T16:36:21.993Z,26.50
2018-05-14T16:39:54.471Z,26.50
2018-05-14T16:43:27.739Z,26.40
2018-05-14T16:47:00.223Z,26.40
2018-05-14T16:50:32.704Z,26.40
2018-05-14T16:54:05.201Z,26.30
2018-05-14T16:57:37.788Z,26.10
2018-05-14T17:01:10.988Z,25.60
2018-05-14T17:04:43.505Z,25.50
2018-05-14T17:08:16.752Z,25.50
2018-05-14T17:11:49.251Z,25.40
2018-05-14T17:15:21.832Z,25.40
2018-05-14T17:18:54.310Z,25.30
2018-05-14T17:22:26.781Z,25.10
2018-05-14T17:25:59.259Z,25.00
2018-05-14T17:29:38.359Z,24.90
2018-05-14T17:33:11.604Z,24.70
2018-05-14T17:36:44.089Z,24.70
2018-05-14T17:40:16.612Z,24.50
2018-05-14T17:43:49.459Z,24.40
2018-05-14T17:47:21.949Z,24.30
2018-05-14T17:50:54.432Z,24.20
2018-05-14T17:54:26.914Z,24.10
2018-05-14T17:57:59.383Z,24.10
2018-05-14T18:01:31.868Z,24.10
2018-05-14T18:05:04.363Z,24.10
2018-05-14T18:08:36.841Z,24.00
2018-05-14T18:12:09.396Z,23.80
2018-05-14T18:15:41.876Z,23.60
2018-05-14T18:19:14.362Z,23.50
2018-05-14T18:22:46.844Z,23.30
2018-05-14T18:26:19.322Z,23.20
2018-05-14T18:29:54.634Z,22.90
2018-05-14T18:33:27.129Z,22.30
2018-05-14T18:37:00.368Z,19.60
2018-05-14T18:40:32.855Z,19.50
2018-05-14T18:44:11.179Z,18.50
2018-05-14T18:47:43.667Z,17.90
2018-05-14T18:51:16.151Z,17.60
2018-05-14T18:54:48.631Z,17.40
2018-05-14T18:58:21.119Z,17.30
2018-05-14T19:01:53.610Z,17.30
2018-05-14T19:13:52.402Z,17.30
2018-05-14T20:50:53.083Z,17.50
2018-05-14T20:54:25.585Z,17.30
2018-05-14T20:57:58.462Z,17.40
2018-05-14T21:01:30.986Z,17.50
2018-05-14T21:05:03.478Z,17.60
2018-05-14T21:08:35.973Z,17.70
2018-05-14T21:12:09.296Z,17.70
2018-05-14T21:15:42.171Z,17.70
2018-05-14T21:19:15.457Z,17.80
2018-05-14T21:22:47.950Z,17.80
2018-05-14T21:26:21.284Z,17.80
2018-05-14T21:29:53.761Z,17.80
2018-05-14T21:33:26.256Z,17.70
2018-05-14T21:36:58.746Z,17.80
2018-05-14T21:40:31.253Z,17.80
2018-05-14T21:44:03.765Z,17.90
2018-05-14T21:47:37.023Z,17.90
2018-05-14T21:51:09.770Z,17.90
2018-05-14T21:54:42.264Z,17.90
2018-05-14T21:58:14.758Z,17.90
2018-05-14T22:01:47.250Z,17.80
2018-05-14T22:05:19.737Z,17.80
2018-05-14T22:08:52.233Z,17.70
2018-05-14T22:12:24.723Z,17.60
2018-05-14T22:15:57.237Z,17.50
2018-05-14T22:19:30.484Z,17.40
2018-05-14T22:23:03.046Z,17.40
2018-05-14T22:26:35.545Z,17.20
2018-05-14T22:30:08.036Z,17.10
2018-05-14T22:33:40.522Z,17.00
2018-05-14T22:37:13.008Z,17.00
2018-05-14T22:40:45.492Z,16.90
2018-05-14T22:44:18.040Z,16.90
2018-05-14T22:47:50.530Z,16.90
2018-05-14T22:51:23.028Z,16.90
2018-05-14T22:54:55.623Z,16.80
2018-05-14T22:58:28.100Z,16.80
2018-05-14T23:02:00.598Z,16.80
2018-05-14T23:05:33.099Z,16.80
2018-05-14T23:09:06.380Z,16.90
2018-05-14T23:12:38.855Z,16.90
2018-05-14T23:16:11.348Z,16.90
2018-05-14T23:19:43.843Z,16.90
2018-05-14T23:23:17.096Z,16.80
2018-05-14T23:26:49.592Z,16.80
2018-05-14T23:30:22.080Z,16.80
2018-05-14T23:33:54.570Z,16.80
2018-05-14T23:37:27.059Z,16.70
2018-05-14T23:40:59.552Z,16.70
2018-05-14T23:44:32.092Z,16.70
2018-05-14T23:48:05.337Z,16.60
2018-05-14T23:51:38.601Z,16.60
2018-05-14T23:55:11.101Z,16.60
2018-05-14T23:58:45.108Z,16.50
